Kezdőlap
METAR-TAF:

METAR-TAF

Repülőterek :

Csungking, Kína

földrajzi szélesség: 29-31N, földrajzi hosszúság: 106-29E, magasság: 351 m

Jelenlegi meteorológiai megfigyelések

A jelentés 44 perccel ezelõtt készült, 07:00 UTC
Déli szél 4 kt, dél-délkeleti és dél-délnyugati között változik
Hőmérséklet 25°C
Páratartalom 94%
Légköri nyomás 1005 hPa
Látótávolság: 7000 m
Szórványos felhőzet 900 lábon
Szakadozott felhőzet 2000 lábon
Borult 5000 lábon
enyhe záporok

METAR: ZUCK 130700Z 18002MPS 150V210 7000 -SHRA SCT009 BKN020 OVC050 25/24 Q1005 RESHRA NOSIG

Idő: 15:44 (07:44 UTC)

Előrejelzés

A jelentés 31 perccel ezelõtt készült, 07:13 UTC
Az előrejelzés 13-én 06 óra UTC és 14-én 06 óra UTC között érvényes
Dél-délnyugati szél 6 kt
Látótávolság: 6000 m
Szórványos felhőzet 3000 lábon
13-én 06 óra UTC és 13-én 10 óra UTC között ideiglenes
enyhe záporok

TAF: ZUCK 130713Z 1306/1406 20003MPS 6000 SCT030 TX34/1406Z TN29/1321Z TEMPO 1306/1310 -SHRA

Meteorológiai megfigyelések és előrejelzések több, mint 4000 repülőtéren (METAR és TAF jelentéseket).

A térképen piros és sárga pontok jelzik az elérhető meteorológiai állomásokat.

Mozgassa az egeret a pont fölött, hogy megjelenjen az állomás neve.

Azután kattintson az időjárási megfigyelések és előrejelzések megtekintéséhez.

A térkép megváltoztatása: kattintson a fekete keresztel jelölt zöld gombra ráközelítéshez, a vonallal jelölt zöld gombra távolításhoz, vagy a zöld nyilakra a szomszédos térképek eléréséhez.


METAR-TAF: